sensor_id;sensor_type;location;lat;lon;timestamp;temperature;humidity
14727;DHT22;7454;51.256;8.176;2023-11-19T00:00:25;7.90;83.80
14727;DHT22;7454;51.256;8.176;2023-11-19T00:02:51;7.80;84.20
14727;DHT22;7454;51.256;8.176;2023-11-19T00:05:17;7.80;83.90
14727;DHT22;7454;51.256;8.176;2023-11-19T00:07:43;7.80;84.10
14727;DHT22;7454;51.256;8.176;2023-11-19T00:10:16;7.80;84.20
14727;DHT22;7454;51.256;8.176;2023-11-19T00:12:45;7.90;84.20
14727;DHT22;7454;51.256;8.176;2023-11-19T00:15:12;7.90;84.40
14727;DHT22;7454;51.256;8.176;2023-11-19T00:17:39;7.90;84.40
14727;DHT22;7454;51.256;8.176;2023-11-19T00:20:14;7.90;84.40
14727;DHT22;7454;51.256;8.176;2023-11-19T00:22:41;7.90;84.50
14727;DHT22;7454;51.256;8.176;2023-11-19T00:25:08;7.90;84.50
14727;DHT22;7454;51.256;8.176;2023-11-19T00:27:34;7.80;84.50
14727;DHT22;7454;51.256;8.176;2023-11-19T00:29:59;7.90;84.70
14727;DHT22;7454;51.256;8.176;2023-11-19T00:32:25;8.00;84.90
14727;DHT22;7454;51.256;8.176;2023-11-19T00:34:51;8.00;84.90
14727;DHT22;7454;51.256;8.176;2023-11-19T00:37:17;8.00;85.00
14727;DHT22;7454;51.256;8.176;2023-11-19T00:39:42;8.00;85.10
14727;DHT22;7454;51.256;8.176;2023-11-19T00:42:09;8.00;85.00
14727;DHT22;7454;51.256;8.176;2023-11-19T00:44:35;8.10;85.30
14727;DHT22;7454;51.256;8.176;2023-11-19T00:47:01;8.10;85.30
14727;DHT22;7454;51.256;8.176;2023-11-19T00:49:28;8.10;85.40
14727;DHT22;7454;51.256;8.176;2023-11-19T00:51:53;8.10;85.40
14727;DHT22;7454;51.256;8.176;2023-11-19T00:54:19;8.10;85.50
14727;DHT22;7454;51.256;8.176;2023-11-19T00:56:45;8.10;85.60
14727;DHT22;7454;51.256;8.176;2023-11-19T00:59:11;8.10;85.60
14727;DHT22;7454;51.256;8.176;2023-11-19T01:01:37;8.20;85.70
14727;DHT22;7454;51.256;8.176;2023-11-19T01:04:03;8.20;85.80
14727;DHT22;7454;51.256;8.176;2023-11-19T01:06:29;8.20;86.00
14727;DHT22;7454;51.256;8.176;2023-11-19T01:08:55;8.30;86.00
14727;DHT22;7454;51.256;8.176;2023-11-19T01:11:22;8.30;86.10
14727;DHT22;7454;51.256;8.176;2023-11-19T01:13:49;8.30;86.10
14727;DHT22;7454;51.256;8.176;2023-11-19T01:16:15;8.30;86.20
14727;DHT22;7454;51.256;8.176;2023-11-19T01:18:41;8.30;86.20
14727;DHT22;7454;51.256;8.176;2023-11-19T01:21:06;8.30;86.20
14727;DHT22;7454;51.256;8.176;2023-11-19T01:23:32;8.40;86.30
14727;DHT22;7454;51.256;8.176;2023-11-19T01:25:59;8.40;86.30
14727;DHT22;7454;51.256;8.176;2023-11-19T01:28:24;8.40;86.60
14727;DHT22;7454;51.256;8.176;2023-11-19T01:30:50;8.50;86.70
14727;DHT22;7454;51.256;8.176;2023-11-19T01:33:16;8.50;86.70
14727;DHT22;7454;51.256;8.176;2023-11-19T01:35:42;8.50;86.70
14727;DHT22;7454;51.256;8.176;2023-11-19T01:38:07;8.50;86.70
14727;DHT22;7454;51.256;8.176;2023-11-19T01:40:36;8.50;86.70
14727;DHT22;7454;51.256;8.176;2023-11-19T01:43:05;8.50;86.70
14727;DHT22;7454;51.256;8.176;2023-11-19T01:45:31;8.50;86.70
14727;DHT22;7454;51.256;8.176;2023-11-19T01:47:58;8.50;86.70
14727;DHT22;7454;51.256;8.176;2023-11-19T01:50:26;8.50;86.70
14727;DHT22;7454;51.256;8.176;2023-11-19T01:52:52;8.50;86.70
14727;DHT22;7454;51.256;8.176;2023-11-19T01:55:19;8.50;86.70
14727;DHT22;7454;51.256;8.176;2023-11-19T01:57:45;8.50;86.70
14727;DHT22;7454;51.256;8.176;2023-11-19T02:00:11;8.60;86.80
14727;DHT22;7454;51.256;8.176;2023-11-19T02:02:42;8.50;86.70
14727;DHT22;7454;51.256;8.176;2023-11-19T02:05:10;8.60;86.80
14727;DHT22;7454;51.256;8.176;2023-11-19T02:07:36;8.50;86.70
14727;DHT22;7454;51.256;8.176;2023-11-19T02:10:02;8.50;86.80
14727;DHT22;7454;51.256;8.176;2023-11-19T02:12:28;8.60;86.80
14727;DHT22;7454;51.256;8.176;2023-11-19T02:14:54;8.60;86.90
14727;DHT22;7454;51.256;8.176;2023-11-19T02:17:26;8.60;86.90
14727;DHT22;7454;51.256;8.176;2023-11-19T02:19:52;8.60;86.80
14727;DHT22;7454;51.256;8.176;2023-11-19T02:22:19;8.70;86.90
14727;DHT22;7454;51.256;8.176;2023-11-19T02:24:45;8.60;86.80
14727;DHT22;7454;51.256;8.176;2023-11-19T02:27:26;8.60;86.80
14727;DHT22;7454;51.256;8.176;2023-11-19T02:29:56;8.60;86.90
14727;DHT22;7454;51.256;8.176;2023-11-19T02:32:23;8.60;86.90
14727;DHT22;7454;51.256;8.176;2023-11-19T02:34:48;8.60;86.90
14727;DHT22;7454;51.256;8.176;2023-11-19T02:37:14;8.60;86.90
14727;DHT22;7454;51.256;8.176;2023-11-19T02:39:41;8.60;86.90
14727;DHT22;7454;51.256;8.176;2023-11-19T02:42:07;8.60;86.90
14727;DHT22;7454;51.256;8.176;2023-11-19T02:44:33;8.60;86.90
14727;DHT22;7454;51.256;8.176;2023-11-19T02:46:59;8.60;86.90
14727;DHT22;7454;51.256;8.176;2023-11-19T02:49:25;8.70;87.00
14727;DHT22;7454;51.256;8.176;2023-11-19T02:51:50;8.70;87.00
14727;DHT22;7454;51.256;8.176;2023-11-19T02:54:16;8.70;87.10
14727;DHT22;7454;51.256;8.176;2023-11-19T02:56:42;8.70;87.10
14727;DHT22;7454;51.256;8.176;2023-11-19T02:59:08;8.80;87.30
14727;DHT22;7454;51.256;8.176;2023-11-19T03:01:43;8.80;87.30
14727;DHT22;7454;51.256;8.176;2023-11-19T03:04:14;8.90;87.50
14727;DHT22;7454;51.256;8.176;2023-11-19T03:06:42;8.90;87.50
14727;DHT22;7454;51.256;8.176;2023-11-19T03:09:08;9.00;87.60
14727;DHT22;7454;51.256;8.176;2023-11-19T03:11:36;9.00;87.90
14727;DHT22;7454;51.256;8.176;2023-11-19T03:14:02;9.00;88.20
14727;DHT22;7454;51.256;8.176;2023-11-19T03:16:28;9.10;88.40
14727;DHT22;7454;51.256;8.176;2023-11-19T03:18:54;9.10;88.50
14727;DHT22;7454;51.256;8.176;2023-11-19T03:21:27;9.10;88.60
14727;DHT22;7454;51.256;8.176;2023-11-19T03:23:57;9.10;88.70
14727;DHT22;7454;51.256;8.176;2023-11-19T03:26:26;9.20;88.70
14727;DHT22;7454;51.256;8.176;2023-11-19T03:28:52;9.20;88.80
14727;DHT22;7454;51.256;8.176;2023-11-19T03:31:18;9.20;88.90
14727;DHT22;7454;51.256;8.176;2023-11-19T03:33:44;9.20;89.00
14727;DHT22;7454;51.256;8.176;2023-11-19T03:36:10;9.30;89.10
14727;DHT22;7454;51.256;8.176;2023-11-19T03:38:36;9.20;89.20
14727;DHT22;7454;51.256;8.176;2023-11-19T03:41:09;9.30;89.40
14727;DHT22;7454;51.256;8.176;2023-11-19T03:43:36;9.30;89.70
14727;DHT22;7454;51.256;8.176;2023-11-19T03:46:02;9.30;89.80
14727;DHT22;7454;51.256;8.176;2023-11-19T03:48:27;9.30;90.00
14727;DHT22;7454;51.256;8.176;2023-11-19T03:50:53;9.40;90.00
14727;DHT22;7454;51.256;8.176;2023-11-19T03:53:18;9.40;90.00
14727;DHT22;7454;51.256;8.176;2023-11-19T03:55:44;9.40;90.00
14727;DHT22;7454;51.256;8.176;2023-11-19T03:58:10;9.50;90.10
14727;DHT22;7454;51.256;8.176;2023-11-19T04:00:35;9.50;90.10
14727;DHT22;7454;51.256;8.176;2023-11-19T04:03:01;9.50;90.10
14727;DHT22;7454;51.256;8.176;2023-11-19T04:05:28;9.60;90.10
14727;DHT22;7454;51.256;8.176;2023-11-19T04:07:54;9.50;90.20
14727;DHT22;7454;51.256;8.176;2023-11-19T04:10:19;9.60;90.20
14727;DHT22;7454;51.256;8.176;2023-11-19T04:12:45;9.60;90.20
14727;DHT22;7454;51.256;8.176;2023-11-19T04:15:11;9.60;90.30
14727;DHT22;7454;51.256;8.176;2023-11-19T04:17:37;9.70;90.40
14727;DHT22;7454;51.256;8.176;2023-11-19T04:20:02;9.70;90.70
14727;DHT22;7454;51.256;8.176;2023-11-19T04:22:29;9.70;90.70
14727;DHT22;7454;51.256;8.176;2023-11-19T04:24:55;9.70;90.70
14727;DHT22;7454;51.256;8.176;2023-11-19T04:27:22;9.70;90.70
14727;DHT22;7454;51.256;8.176;2023-11-19T04:29:47;9.70;90.70
14727;DHT22;7454;51.256;8.176;2023-11-19T04:32:14;9.80;91.10
14727;DHT22;7454;51.256;8.176;2023-11-19T04:34:39;9.80;91.10
14727;DHT22;7454;51.256;8.176;2023-11-19T04:37:05;9.80;91.10
14727;DHT22;7454;51.256;8.176;2023-11-19T04:39:31;9.80;90.80
14727;DHT22;7454;51.256;8.176;2023-11-19T04:41:57;9.80;90.80
14727;DHT22;7454;51.256;8.176;2023-11-19T04:44:22;9.80;90.70
14727;DHT22;7454;51.256;8.176;2023-11-19T04:46:48;9.90;90.70
14727;DHT22;7454;51.256;8.176;2023-11-19T04:49:14;9.90;90.80
14727;DHT22;7454;51.256;8.176;2023-11-19T04:51:43;9.90;91.00
14727;DHT22;7454;51.256;8.176;2023-11-19T04:54:10;10.00;91.10
14727;DHT22;7454;51.256;8.176;2023-11-19T04:56:35;10.00;91.10
14727;DHT22;7454;51.256;8.176;2023-11-19T04:59:02;10.00;91.00
14727;DHT22;7454;51.256;8.176;2023-11-19T05:01:29;10.00;90.70
14727;DHT22;7454;51.256;8.176;2023-11-19T05:03:55;10.10;90.50
14727;DHT22;7454;51.256;8.176;2023-11-19T05:06:25;10.10;90.10
14727;DHT22;7454;51.256;8.176;2023-11-19T05:08:58;10.20;89.10
14727;DHT22;7454;51.256;8.176;2023-11-19T05:11:26;10.20;88.10
14727;DHT22;7454;51.256;8.176;2023-11-19T05:13:53;10.20;87.70
14727;DHT22;7454;51.256;8.176;2023-11-19T05:16:19;10.20;84.80
14727;DHT22;7454;51.256;8.176;2023-11-19T05:18:46;10.30;83.30
14727;DHT22;7454;51.256;8.176;2023-11-19T05:21:12;10.30;83.10
14727;DHT22;7454;51.256;8.176;2023-11-19T05:23:38;10.40;82.50
14727;DHT22;7454;51.256;8.176;2023-11-19T05:26:04;10.40;82.40
14727;DHT22;7454;51.256;8.176;2023-11-19T05:28:30;10.40;82.10
14727;DHT22;7454;51.256;8.176;2023-11-19T05:30:56;10.40;82.00
14727;DHT22;7454;51.256;8.176;2023-11-19T05:33:22;10.40;82.00
14727;DHT22;7454;51.256;8.176;2023-11-19T05:35:47;10.40;82.00
14727;DHT22;7454;51.256;8.176;2023-11-19T05:38:13;10.40;82.00
14727;DHT22;7454;51.256;8.176;2023-11-19T05:40:40;10.40;82.10
14727;DHT22;7454;51.256;8.176;2023-11-19T05:43:06;10.30;82.00
14727;DHT22;7454;51.256;8.176;2023-11-19T05:45:32;10.30;82.10
14727;DHT22;7454;51.256;8.176;2023-11-19T05:47:58;10.30;82.00
14727;DHT22;7454;51.256;8.176;2023-11-19T05:50:23;10.30;82.00
14727;DHT22;7454;51.256;8.176;2023-11-19T05:52:49;10.30;82.00
14727;DHT22;7454;51.256;8.176;2023-11-19T05:55:15;10.30;82.00
14727;DHT22;7454;51.256;8.176;2023-11-19T05:57:41;10.30;82.00
14727;DHT22;7454;51.256;8.176;2023-11-19T06:00:07;10.30;82.00
14727;DHT22;7454;51.256;8.176;2023-11-19T06:02:37;10.30;82.00
14727;DHT22;7454;51.256;8.176;2023-11-19T06:05:05;10.30;82.00
14727;DHT22;7454;51.256;8.176;2023-11-19T06:07:32;10.20;81.90
14727;DHT22;7454;51.256;8.176;2023-11-19T06:09:58;10.30;82.00
14727;DHT22;7454;51.256;8.176;2023-11-19T06:12:23;10.30;81.90
14727;DHT22;7454;51.256;8.176;2023-11-19T06:14:49;10.30;81.70
14727;DHT22;7454;51.256;8.176;2023-11-19T06:17:15;10.40;81.70
14727;DHT22;7454;51.256;8.176;2023-11-19T06:19:40;10.30;81.70
14727;DHT22;7454;51.256;8.176;2023-11-19T06:22:06;10.30;81.60
14727;DHT22;7454;51.256;8.176;2023-11-19T06:24:32;10.30;81.40
14727;DHT22;7454;51.256;8.176;2023-11-19T06:26:57;10.30;81.30
14727;DHT22;7454;51.256;8.176;2023-11-19T06:29:23;10.20;81.30
14727;DHT22;7454;51.256;8.176;2023-11-19T06:31:49;10.30;81.30
14727;DHT22;7454;51.256;8.176;2023-11-19T06:34:15;10.30;81.20
14727;DHT22;7454;51.256;8.176;2023-11-19T06:36:41;10.30;81.30
14727;DHT22;7454;51.256;8.176;2023-11-19T06:39:08;10.30;81.40
14727;DHT22;7454;51.256;8.176;2023-11-19T06:41:36;10.20;81.40
14727;DHT22;7454;51.256;8.176;2023-11-19T06:44:03;10.20;81.40
14727;DHT22;7454;51.256;8.176;2023-11-19T06:46:30;10.20;81.40
14727;DHT22;7454;51.256;8.176;2023-11-19T06:48:56;10.20;81.30
14727;DHT22;7454;51.256;8.176;2023-11-19T06:51:22;10.20;81.20
14727;DHT22;7454;51.256;8.176;2023-11-19T06:53:49;10.20;81.20
14727;DHT22;7454;51.256;8.176;2023-11-19T06:58:48;10.10;81.10
14727;DHT22;7454;51.256;8.176;2023-11-19T07:01:14;10.10;81.10
14727;DHT22;7454;51.256;8.176;2023-11-19T07:03:40;10.00;81.10
14727;DHT22;7454;51.256;8.176;2023-11-19T07:06:06;10.00;80.90
14727;DHT22;7454;51.256;8.176;2023-11-19T07:08:32;10.00;80.80
14727;DHT22;7454;51.256;8.176;2023-11-19T07:10:57;10.10;80.90
14727;DHT22;7454;51.256;8.176;2023-11-19T07:13:23;10.10;80.90
14727;DHT22;7454;51.256;8.176;2023-11-19T07:15:49;10.00;81.00
14727;DHT22;7454;51.256;8.176;2023-11-19T07:18:14;10.10;81.00
14727;DHT22;7454;51.256;8.176;2023-11-19T07:20:40;10.10;81.00
14727;DHT22;7454;51.256;8.176;2023-11-19T07:23:06;10.10;81.00
14727;DHT22;7454;51.256;8.176;2023-11-19T07:25:31;10.00;81.00
14727;DHT22;7454;51.256;8.176;2023-11-19T07:27:57;10.10;80.80
14727;DHT22;7454;51.256;8.176;2023-11-19T07:30:23;10.10;80.70
14727;DHT22;7454;51.256;8.176;2023-11-19T07:32:48;10.10;80.50
14727;DHT22;7454;51.256;8.176;2023-11-19T07:35:14;10.10;80.60
14727;DHT22;7454;51.256;8.176;2023-11-19T07:37:41;10.10;80.50
14727;DHT22;7454;51.256;8.176;2023-11-19T07:40:07;10.10;80.40
14727;DHT22;7454;51.256;8.176;2023-11-19T07:42:33;10.10;80.40
14727;DHT22;7454;51.256;8.176;2023-11-19T07:44:59;10.10;80.30
14727;DHT22;7454;51.256;8.176;2023-11-19T07:47:25;10.10;80.40
14727;DHT22;7454;51.256;8.176;2023-11-19T07:49:50;10.00;80.30
14727;DHT22;7454;51.256;8.176;2023-11-19T07:52:16;10.00;80.10
14727;DHT22;7454;51.256;8.176;2023-11-19T07:54:42;10.10;80.20
14727;DHT22;7454;51.256;8.176;2023-11-19T07:57:07;10.20;80.10
14727;DHT22;7454;51.256;8.176;2023-11-19T07:59:33;10.10;80.20
14727;DHT22;7454;51.256;8.176;2023-11-19T08:01:59;10.10;80.20
14727;DHT22;7454;51.256;8.176;2023-11-19T08:04:24;10.10;80.20
14727;DHT22;7454;51.256;8.176;2023-11-19T08:06:50;10.10;80.20
14727;DHT22;7454;51.256;8.176;2023-11-19T08:09:16;10.10;80.30
14727;DHT22;7454;51.256;8.176;2023-11-19T08:11:42;10.10;80.20
14727;DHT22;7454;51.256;8.176;2023-11-19T08:14:08;10.10;80.20
14727;DHT22;7454;51.256;8.176;2023-11-19T08:16:34;10.10;80.10
14727;DHT22;7454;51.256;8.176;2023-11-19T08:19:00;10.10;80.20
14727;DHT22;7454;51.256;8.176;2023-11-19T08:21:25;10.10;80.20
14727;DHT22;7454;51.256;8.176;2023-11-19T08:23:52;10.10;80.10
14727;DHT22;7454;51.256;8.176;2023-11-19T08:26:18;10.10;80.10
14727;DHT22;7454;51.256;8.176;2023-11-19T08:28:43;9.90;79.90
14727;DHT22;7454;51.256;8.176;2023-11-19T08:31:09;10.10;80.10
14727;DHT22;7454;51.256;8.176;2023-11-19T08:33:34;10.10;80.10
14727;DHT22;7454;51.256;8.176;2023-11-19T08:36:00;10.10;80.00
14727;DHT22;7454;51.256;8.176;2023-11-19T08:38:26;10.10;80.00
14727;DHT22;7454;51.256;8.176;2023-11-19T08:40:52;10.10;80.10
14727;DHT22;7454;51.256;8.176;2023-11-19T08:43:17;10.10;80.10
14727;DHT22;7454;51.256;8.176;2023-11-19T08:45:43;10.10;80.00
14727;DHT22;7454;51.256;8.176;2023-11-19T08:48:09;10.20;79.80
14727;DHT22;7454;51.256;8.176;2023-11-19T08:50:34;10.20;79.80
14727;DHT22;7454;51.256;8.176;2023-11-19T08:53:00;10.20;79.90
14727;DHT22;7454;51.256;8.176;2023-11-19T08:55:25;10.20;79.80
14727;DHT22;7454;51.256;8.176;2023-11-19T08:57:51;10.30;79.80
14727;DHT22;7454;51.256;8.176;2023-11-19T09:00:17;10.30;79.80
14727;DHT22;7454;51.256;8.176;2023-11-19T09:02:43;10.30;79.80
14727;DHT22;7454;51.256;8.176;2023-11-19T09:05:09;10.30;79.90
14727;DHT22;7454;51.256;8.176;2023-11-19T09:07:34;10.30;79.80
14727;DHT22;7454;51.256;8.176;2023-11-19T09:10:00;10.30;79.80
14727;DHT22;7454;51.256;8.176;2023-11-19T09:12:26;10.30;79.80
14727;DHT22;7454;51.256;8.176;2023-11-19T09:14:52;10.30;79.90
14727;DHT22;7454;51.256;8.176;2023-11-19T09:17:18;10.30;79.90
14727;DHT22;7454;51.256;8.176;2023-11-19T09:19:44;10.30;79.90
14727;DHT22;7454;51.256;8.176;2023-11-19T09:22:09;10.30;79.90
14727;DHT22;7454;51.256;8.176;2023-11-19T09:24:35;10.30;79.90
14727;DHT22;7454;51.256;8.176;2023-11-19T09:27:00;10.30;79.90
14727;DHT22;7454;51.256;8.176;2023-11-19T09:29:26;10.30;79.80
14727;DHT22;7454;51.256;8.176;2023-11-19T09:31:52;10.50;79.80
14727;DHT22;7454;51.256;8.176;2023-11-19T09:34:17;10.40;79.80
14727;DHT22;7454;51.256;8.176;2023-11-19T09:36:43;10.50;79.90
14727;DHT22;7454;51.256;8.176;2023-11-19T09:39:10;10.50;80.00
14727;DHT22;7454;51.256;8.176;2023-11-19T09:41:36;10.50;79.80
14727;DHT22;7454;51.256;8.176;2023-11-19T09:44:02;10.60;79.90
14727;DHT22;7454;51.256;8.176;2023-11-19T09:46:27;10.50;79.90
14727;DHT22;7454;51.256;8.176;2023-11-19T09:48:53;10.50;79.80
14727;DHT22;7454;51.256;8.176;2023-11-19T09:51:20;10.60;80.00
14727;DHT22;7454;51.256;8.176;2023-11-19T09:53:46;10.50;79.90
14727;DHT22;7454;51.256;8.176;2023-11-19T09:56:12;10.60;79.90
14727;DHT22;7454;51.256;8.176;2023-11-19T09:58:38;10.60;79.80
14727;DHT22;7454;51.256;8.176;2023-11-19T10:01:03;10.60;79.80
14727;DHT22;7454;51.256;8.176;2023-11-19T10:03:33;10.70;79.70
14727;DHT22;7454;51.256;8.176;2023-11-19T10:06:04;10.60;79.60
14727;DHT22;7454;51.256;8.176;2023-11-19T10:08:32;10.70;79.70
14727;DHT22;7454;51.256;8.176;2023-11-19T10:10:58;10.70;79.80
14727;DHT22;7454;51.256;8.176;2023-11-19T10:13:28;10.70;79.80
14727;DHT22;7454;51.256;8.176;2023-11-19T10:15:55;10.70;79.80
14727;DHT22;7454;51.256;8.176;2023-11-19T10:18:25;10.70;79.70
14727;DHT22;7454;51.256;8.176;2023-11-19T10:20:51;10.70;79.70
14727;DHT22;7454;51.256;8.176;2023-11-19T10:23:17;10.70;79.80
14727;DHT22;7454;51.256;8.176;2023-11-19T10:25:43;10.80;79.70
14727;DHT22;7454;51.256;8.176;2023-11-19T10:28:09;10.80;79.60
14727;DHT22;7454;51.256;8.176;2023-11-19T10:30:34;10.80;79.60
14727;DHT22;7454;51.256;8.176;2023-11-19T10:33:03;10.80;79.60
14727;DHT22;7454;51.256;8.176;2023-11-19T10:35:55;10.80;79.60
14727;DHT22;7454;51.256;8.176;2023-11-19T10:38:20;10.80;79.50
14727;DHT22;7454;51.256;8.176;2023-11-19T10:40:47;10.80;79.50
14727;DHT22;7454;51.256;8.176;2023-11-19T10:43:14;10.90;79.50
14727;DHT22;7454;51.256;8.176;2023-11-19T10:45:40;10.90;79.50
14727;DHT22;7454;51.256;8.176;2023-11-19T10:48:06;10.90;79.40
14727;DHT22;7454;51.256;8.176;2023-11-19T10:50:33;10.90;79.30
14727;DHT22;7454;51.256;8.176;2023-11-19T10:52:59;10.90;79.40
14727;DHT22;7454;51.256;8.176;2023-11-19T10:55:29;10.90;79.30
14727;DHT22;7454;51.256;8.176;2023-11-19T10:57:59;10.90;79.40
14727;DHT22;7454;51.256;8.176;2023-11-19T11:00:26;10.90;79.40
14727;DHT22;7454;51.256;8.176;2023-11-19T11:02:55;10.90;79.40
14727;DHT22;7454;51.256;8.176;2023-11-19T11:05:22;10.90;79.50
14727;DHT22;7454;51.256;8.176;2023-11-19T11:07:47;10.90;79.20
14727;DHT22;7454;51.256;8.176;2023-11-19T11:10:14;10.90;79.30
14727;DHT22;7454;51.256;8.176;2023-11-19T11:12:41;10.90;79.30
14727;DHT22;7454;51.256;8.176;2023-11-19T11:15:08;10.80;79.30
14727;DHT22;7454;51.256;8.176;2023-11-19T11:17:38;10.90;79.40
14727;DHT22;7454;51.256;8.176;2023-11-19T11:20:05;10.80;79.40
14727;DHT22;7454;51.256;8.176;2023-11-19T11:22:33;10.90;79.30
14727;DHT22;7454;51.256;8.176;2023-11-19T11:25:22;10.90;79.40
14727;DHT22;7454;51.256;8.176;2023-11-19T11:30:49;10.90;79.40
14727;DHT22;7454;51.256;8.176;2023-11-19T11:33:41;10.90;79.40
14727;DHT22;7454;51.256;8.176;2023-11-19T11:36:22;10.90;79.20
14727;DHT22;7454;51.256;8.176;2023-11-19T11:38:49;11.00;79.10
14727;DHT22;7454;51.256;8.176;2023-11-19T11:41:18;10.90;79.20
14727;DHT22;7454;51.256;8.176;2023-11-19T11:47:00;11.00;79.40
14727;DHT22;7454;51.256;8.176;2023-11-19T11:49:06;10.90;79.40
14727;DHT22;7454;51.256;8.176;2023-11-19T11:54:08;10.90;79.60
14727;DHT22;7454;51.256;8.176;2023-11-19T11:56:33;10.90;79.60
14727;DHT22;7454;51.256;8.176;2023-11-19T11:59:03;10.90;79.50
14727;DHT22;7454;51.256;8.176;2023-11-19T12:01:28;10.90;79.60
14727;DHT22;7454;51.256;8.176;2023-11-19T12:03:57;10.90;79.60
14727;DHT22;7454;51.256;8.176;2023-11-19T12:06:23;11.00;79.80
14727;DHT22;7454;51.256;8.176;2023-11-19T12:08:49;11.00;79.70
14727;DHT22;7454;51.256;8.176;2023-11-19T12:11:15;11.00;79.70
14727;DHT22;7454;51.256;8.176;2023-11-19T12:13:46;10.90;79.70
14727;DHT22;7454;51.256;8.176;2023-11-19T12:16:14;11.00;79.50
14727;DHT22;7454;51.256;8.176;2023-11-19T12:18:40;11.10;79.50
14727;DHT22;7454;51.256;8.176;2023-11-19T12:21:06;11.10;79.50
14727;DHT22;7454;51.256;8.176;2023-11-19T12:23:34;11.00;79.40
14727;DHT22;7454;51.256;8.176;2023-11-19T12:26:00;11.00;79.20
14727;DHT22;7454;51.256;8.176;2023-11-19T12:28:26;10.90;79.40
14727;DHT22;7454;51.256;8.176;2023-11-19T12:30:52;11.00;79.30
14727;DHT22;7454;51.256;8.176;2023-11-19T12:33:21;10.90;79.30
14727;DHT22;7454;51.256;8.176;2023-11-19T12:35:47;10.90;79.50
14727;DHT22;7454;51.256;8.176;2023-11-19T12:38:23;10.80;79.60
14727;DHT22;7454;51.256;8.176;2023-11-19T12:43:36;10.70;79.90
14727;DHT22;7454;51.256;8.176;2023-11-19T12:46:16;10.70;79.90
14727;DHT22;7454;51.256;8.176;2023-11-19T12:48:46;10.70;79.90
14727;DHT22;7454;51.256;8.176;2023-11-19T12:51:12;10.70;80.10
14727;DHT22;7454;51.256;8.176;2023-11-19T12:53:51;10.70;79.90
14727;DHT22;7454;51.256;8.176;2023-11-19T12:56:20;10.70;79.90
14727;DHT22;7454;51.256;8.176;2023-11-19T12:58:47;10.70;79.90
14727;DHT22;7454;51.256;8.176;2023-11-19T13:01:19;10.70;79.90
14727;DHT22;7454;51.256;8.176;2023-11-19T13:03:45;10.60;79.90
14727;DHT22;7454;51.256;8.176;2023-11-19T13:06:12;10.60;79.80
14727;DHT22;7454;51.256;8.176;2023-11-19T13:08:42;10.60;79.70
14727;DHT22;7454;51.256;8.176;2023-11-19T13:11:10;10.60;79.80
14727;DHT22;7454;51.256;8.176;2023-11-19T13:13:56;10.60;79.90
14727;DHT22;7454;51.256;8.176;2023-11-19T13:16:26;10.60;79.90
14727;DHT22;7454;51.256;8.176;2023-11-19T13:18:52;10.60;80.00
14727;DHT22;7454;51.256;8.176;2023-11-19T13:21:18;10.60;80.10
14727;DHT22;7454;51.256;8.176;2023-11-19T13:23:44;10.60;80.20
14727;DHT22;7454;51.256;8.176;2023-11-19T13:26:10;10.50;80.20
14727;DHT22;7454;51.256;8.176;2023-11-19T13:28:36;10.50;80.30
14727;DHT22;7454;51.256;8.176;2023-11-19T13:31:02;10.50;80.40
14727;DHT22;7454;51.256;8.176;2023-11-19T13:33:28;10.50;80.50
14727;DHT22;7454;51.256;8.176;2023-11-19T13:35:55;10.50;80.50
14727;DHT22;7454;51.256;8.176;2023-11-19T13:38:21;10.50;80.40
14727;DHT22;7454;51.256;8.176;2023-11-19T13:40:48;10.50;80.50
14727;DHT22;7454;51.256;8.176;2023-11-19T13:43:14;10.50;80.50
14727;DHT22;7454;51.256;8.176;2023-11-19T13:45:40;10.50;80.60
14727;DHT22;7454;51.256;8.176;2023-11-19T13:48:06;10.50;80.60
14727;DHT22;7454;51.256;8.176;2023-11-19T13:50:31;10.50;80.60
14727;DHT22;7454;51.256;8.176;2023-11-19T13:52:57;10.50;80.60
14727;DHT22;7454;51.256;8.176;2023-11-19T13:55:23;10.50;80.60
14727;DHT22;7454;51.256;8.176;2023-11-19T13:57:48;10.50;80.60
14727;DHT22;7454;51.256;8.176;2023-11-19T14:00:14;10.50;80.50
14727;DHT22;7454;51.256;8.176;2023-11-19T14:02:47;10.50;80.50
14727;DHT22;7454;51.256;8.176;2023-11-19T14:05:13;10.50;80.50
14727;DHT22;7454;51.256;8.176;2023-11-19T14:07:41;10.40;80.60
14727;DHT22;7454;51.256;8.176;2023-11-19T14:10:07;10.40;80.30
14727;DHT22;7454;51.256;8.176;2023-11-19T14:12:34;10.40;80.50
14727;DHT22;7454;51.256;8.176;2023-11-19T14:15:02;10.40;80.30
14727;DHT22;7454;51.256;8.176;2023-11-19T14:17:27;10.40;80.00
14727;DHT22;7454;51.256;8.176;2023-11-19T14:19:53;10.40;79.90
14727;DHT22;7454;51.256;8.176;2023-11-19T14:22:19;10.50;80.00
14727;DHT22;7454;51.256;8.176;2023-11-19T14:24:44;10.40;80.00
14727;DHT22;7454;51.256;8.176;2023-11-19T14:27:10;10.40;79.90
14727;DHT22;7454;51.256;8.176;2023-11-19T14:29:36;10.40;80.00
14727;DHT22;7454;51.256;8.176;2023-11-19T14:32:02;10.40;80.00
14727;DHT22;7454;51.256;8.176;2023-11-19T14:34:29;10.40;80.00
14727;DHT22;7454;51.256;8.176;2023-11-19T14:36:55;10.40;80.00
14727;DHT22;7454;51.256;8.176;2023-11-19T14:39:21;10.30;79.90
14727;DHT22;7454;51.256;8.176;2023-11-19T14:41:47;10.30;80.00
14727;DHT22;7454;51.256;8.176;2023-11-19T14:44:12;10.30;80.00
14727;DHT22;7454;51.256;8.176;2023-11-19T14:46:38;10.30;80.00
14727;DHT22;7454;51.256;8.176;2023-11-19T14:49:04;10.30;80.10
14727;DHT22;7454;51.256;8.176;2023-11-19T14:51:30;10.30;80.10
14727;DHT22;7454;51.256;8.176;2023-11-19T14:53:56;10.30;80.20
14727;DHT22;7454;51.256;8.176;2023-11-19T14:56:21;10.30;80.20
14727;DHT22;7454;51.256;8.176;2023-11-19T14:58:47;10.20;80.10
14727;DHT22;7454;51.256;8.176;2023-11-19T15:01:16;10.20;80.10
14727;DHT22;7454;51.256;8.176;2023-11-19T15:03:41;10.20;80.10
14727;DHT22;7454;51.256;8.176;2023-11-19T15:06:07;10.20;80.20
14727;DHT22;7454;51.256;8.176;2023-11-19T15:08:33;10.20;80.20
14727;DHT22;7454;51.256;8.176;2023-11-19T15:10:59;10.20;80.20
14727;DHT22;7454;51.256;8.176;2023-11-19T15:13:27;10.20;80.30
14727;DHT22;7454;51.256;8.176;2023-11-19T15:15:53;10.10;80.20
14727;DHT22;7454;51.256;8.176;2023-11-19T15:18:20;10.10;80.20
14727;DHT22;7454;51.256;8.176;2023-11-19T15:20:46;10.20;80.30
14727;DHT22;7454;51.256;8.176;2023-11-19T15:23:13;10.20;80.30
14727;DHT22;7454;51.256;8.176;2023-11-19T15:25:39;10.10;80.30
14727;DHT22;7454;51.256;8.176;2023-11-19T15:28:04;10.20;80.30
14727;DHT22;7454;51.256;8.176;2023-11-19T15:30:30;10.20;80.30
14727;DHT22;7454;51.256;8.176;2023-11-19T15:32:56;10.10;80.30
14727;DHT22;7454;51.256;8.176;2023-11-19T15:35:21;10.10;80.20
14727;DHT22;7454;51.256;8.176;2023-11-19T15:37:47;10.20;80.30
14727;DHT22;7454;51.256;8.176;2023-11-19T15:40:13;10.10;80.30
14727;DHT22;7454;51.256;8.176;2023-11-19T15:42:39;10.10;80.40
14727;DHT22;7454;51.256;8.176;2023-11-19T15:45:06;10.10;80.40
14727;DHT22;7454;51.256;8.176;2023-11-19T15:47:35;10.10;80.50
14727;DHT22;7454;51.256;8.176;2023-11-19T15:50:01;10.10;80.50
14727;DHT22;7454;51.256;8.176;2023-11-19T15:52:29;10.00;80.50
14727;DHT22;7454;51.256;8.176;2023-11-19T15:54:58;9.90;80.60
14727;DHT22;7454;51.256;8.176;2023-11-19T15:57:23;10.00;80.70
14727;DHT22;7454;51.256;8.176;2023-11-19T15:59:49;10.00;80.70